首页
METAR-TAF:

METAR-TAF

机场 :

德黑兰, 伊朗

梅赫拉巴德國際機場

纬度: 35-41N, 经度: 051-21E, 海拔: 1204米

当前天气观测

该预报发布于18分钟前的03:00 UTC
风速10节,风向东南
温度 9°C
湿度 18%
气压 1012 hPa
能见度10公里或以上
少量云层高于4000英尺
多云层高于10000英尺

METAR: OIII 200300Z 14010KT 9999 FEW040 BKN100 09/M14 Q1011 A2987 NOSIG

时间: 06:48 (03:18 UTC)

预报

该预报发布于4小时和18分钟前的23:00 UTC
预报有效从20日的 00点(UTC)到 21日的 06点(UTC)
风速10节,风向南转南东
能見度: 7000
少量云层高于3000英尺, 积雨云.
散云层高于3500英尺
阴天层高于10000英尺
短暂存在
从 20日的 06点(UTC)到 20日的 13点(UTC)
能見度: 3000
成为
从 20日的 16点(UTC)到 20日的 18点(UTC)
风速14节,风向西北,有时为23节阵风
少量云层高于3000英尺
散云层高于10000英尺

TAF: OIII 192300Z 2000/2106 15005MPS 7000 FEW030CB SCT035 OVC100 TEMPO 2006/2013 3000 RA BECMG 2016/2018 32007G12MPS FEW030 SCT100

超过4000个机场的气象观测和天气预报(METAR&TAF报告)。

可查询的气象台以黄色和红色小点在地图上表示。

将鼠标移到小点上方,可查看气象台名称。

然后点击查看天气观测和预报。

如需切换地图:点击带黑十字的绿色按钮放大地图;点击带横线的绿色按钮缩小地图;或者点击绿色箭头查看邻近地区的地图。


METAR-TAF: